KAUS/AUS METAR and TAF weather

Enter ICAO airport designator
Station Type Date Time Source
KAUS METAR 2022/01/26 08:53 UTC NOAA

KAUS 260853Z 04007KT 10SM SCT026 07/06 A3025 RMK AO2 SLP245 T00720056 53012


Station Type Date Time Source
KAUS Decoded METAR 2022/01/26 08:53 UTC NOAA

AUSTIN-BERGSTROM INTERNATIONAL AIRPORT, TX, United States (KAUS) 30-11N 097-41W 172M
Jan 26, 2022 - 03:53 AM EST / 2022.01.26 0853 UTC
Wind: from the NE (040 degrees) at 8 MPH (7 KT):0
Visibility: 10 mile(s):0
Sky conditions: partly cloudy
Temperature: 45.0 F (7.2 C)
Dew Point: 42.1 F (5.6 C)
Relative Humidity: 89%
Pressure (altimeter): 30.25 in. Hg (1024 hPa)
Pressure tendency: 0.04 inches (1.2 hPa) higher than three hours ago
ob: KAUS 260853Z 04007KT 10SM SCT026 07/06 A3025 RMK AO2 SLP245 T00720056 53012
cycle: 9

Station Type Date Time Source
KAUS TAF 2022/01/26 06:22 UTC NOAA

TAF KAUS 260520Z 2606/2712 02008KT P6SM BKN019 OVC030
FM260800 04006KT 3SM BR FEW002 SCT015
FM261200 02010KT P6SM BKN006
FM261500 03012KT P6SM SCT028
FM270000 03005KT P6SM SCT250
FM270900 09003KT P6SM OVC050

Example: see airport list